Terminal Aerodrome Forecast
Issued by NWS

Home | Current Version | Previous Version | Text Only | Print | Product List | Glossary On
Versions: 1 2 3 4 5 6 7 8 9 10 11 12 13
000
FTUS45 KPIH 200300 AAA
TAFSUN
TAF AMD
KSUN 200347Z 2004/2024 13010KT P6SM VCTS SCT030 BKN100CB
     FM200400 32010KT P6SM VCTS SCT070 BKN120CB
     FM201900 14010KT P6SM VCTS BKN070CB
      AMD LTD TO CLD VIS AND WIND 2005/2013=

USA.gov is the U.S. government's official web portal to all federal, state and local government web resources and services.